sensor_id;sensor_type;location;lat;lon;timestamp;temperature;humidity
26182;DHT22;13927;51.534;11.866;2022-12-18T00:01:33;-7.00;99.90
26182;DHT22;13927;51.534;11.866;2022-12-18T00:04:03;-7.10;99.90
26182;DHT22;13927;51.534;11.866;2022-12-18T00:06:32;-7.20;99.90
26182;DHT22;13927;51.534;11.866;2022-12-18T00:09:02;-7.20;99.90
26182;DHT22;13927;51.534;11.866;2022-12-18T00:11:29;-7.30;99.90
26182;DHT22;13927;51.534;11.866;2022-12-18T00:13:58;-7.30;99.90
26182;DHT22;13927;51.534;11.866;2022-12-18T00:16:26;-7.30;99.90
26182;DHT22;13927;51.534;11.866;2022-12-18T00:18:55;-7.30;99.90
26182;DHT22;13927;51.534;11.866;2022-12-18T00:21:23;-7.40;99.90
26182;DHT22;13927;51.534;11.866;2022-12-18T00:23:50;-7.40;99.90
26182;DHT22;13927;51.534;11.866;2022-12-18T00:26:24;-7.40;99.90
26182;DHT22;13927;51.534;11.866;2022-12-18T00:28:53;-7.50;99.90
26182;DHT22;13927;51.534;11.866;2022-12-18T00:31:23;-7.50;99.90
26182;DHT22;13927;51.534;11.866;2022-12-18T00:33:53;-7.50;99.90
26182;DHT22;13927;51.534;11.866;2022-12-18T00:36:26;-7.50;99.90
26182;DHT22;13927;51.534;11.866;2022-12-18T00:38:54;-7.50;99.90
26182;DHT22;13927;51.534;11.866;2022-12-18T00:41:21;-7.40;99.90
26182;DHT22;13927;51.534;11.866;2022-12-18T00:44:09;-7.40;99.90
26182;DHT22;13927;51.534;11.866;2022-12-18T00:46:37;-7.40;99.90
26182;DHT22;13927;51.534;11.866;2022-12-18T00:49:05;-7.40;99.90
26182;DHT22;13927;51.534;11.866;2022-12-18T00:51:32;-7.40;99.90
26182;DHT22;13927;51.534;11.866;2022-12-18T00:53:57;-7.40;99.90
26182;DHT22;13927;51.534;11.866;2022-12-18T00:56:23;-7.40;99.90
26182;DHT22;13927;51.534;11.866;2022-12-18T00:58:50;-7.40;99.90
26182;DHT22;13927;51.534;11.866;2022-12-18T01:01:16;-7.40;99.90
26182;DHT22;13927;51.534;11.866;2022-12-18T01:03:42;-7.40;99.90
26182;DHT22;13927;51.534;11.866;2022-12-18T01:06:09;-7.40;99.90
26182;DHT22;13927;51.534;11.866;2022-12-18T01:08:37;-7.40;99.90
26182;DHT22;13927;51.534;11.866;2022-12-18T01:11:09;-7.40;99.90
26182;DHT22;13927;51.534;11.866;2022-12-18T01:13:36;-7.50;99.90
26182;DHT22;13927;51.534;11.866;2022-12-18T01:16:02;-7.50;99.90
26182;DHT22;13927;51.534;11.866;2022-12-18T01:18:28;-7.50;99.90
26182;DHT22;13927;51.534;11.866;2022-12-18T01:20:53;-7.50;99.90
26182;DHT22;13927;51.534;11.866;2022-12-18T01:23:19;-7.60;99.90
26182;DHT22;13927;51.534;11.866;2022-12-18T01:25:46;-7.60;99.90
26182;DHT22;13927;51.534;11.866;2022-12-18T01:28:11;-7.60;99.90
26182;DHT22;13927;51.534;11.866;2022-12-18T01:30:37;-7.60;99.90
26182;DHT22;13927;51.534;11.866;2022-12-18T01:33:05;-7.70;99.90
26182;DHT22;13927;51.534;11.866;2022-12-18T01:35:31;-7.80;99.90
26182;DHT22;13927;51.534;11.866;2022-12-18T01:37:56;-7.80;99.90
26182;DHT22;13927;51.534;11.866;2022-12-18T01:40:22;-8.00;99.90
26182;DHT22;13927;51.534;11.866;2022-12-18T01:42:52;-8.00;99.90
26182;DHT22;13927;51.534;11.866;2022-12-18T01:48:13;-8.10;99.90
26182;DHT22;13927;51.534;11.866;2022-12-18T01:50:42;-8.20;99.90
26182;DHT22;13927;51.534;11.866;2022-12-18T01:53:21;-8.20;99.90
26182;DHT22;13927;51.534;11.866;2022-12-18T01:55:51;-8.20;99.90
26182;DHT22;13927;51.534;11.866;2022-12-18T01:58:26;-8.20;99.90
26182;DHT22;13927;51.534;11.866;2022-12-18T02:00:58;-8.30;99.90
26182;DHT22;13927;51.534;11.866;2022-12-18T02:03:25;-8.20;99.90
26182;DHT22;13927;51.534;11.866;2022-12-18T02:06:16;-8.30;99.90
26182;DHT22;13927;51.534;11.866;2022-12-18T02:09:05;-8.30;99.90
26182;DHT22;13927;51.534;11.866;2022-12-18T02:14:44;-8.30;99.90
26182;DHT22;13927;51.534;11.866;2022-12-18T02:17:19;-8.30;99.90
26182;DHT22;13927;51.534;11.866;2022-12-18T02:23:45;-8.20;99.90
26182;DHT22;13927;51.534;11.866;2022-12-18T02:29:13;-8.30;99.90
26182;DHT22;13927;51.534;11.866;2022-12-18T02:31:51;-8.30;99.90
26182;DHT22;13927;51.534;11.866;2022-12-18T02:34:21;-8.30;99.90
26182;DHT22;13927;51.534;11.866;2022-12-18T02:36:51;-8.20;99.90
26182;DHT22;13927;51.534;11.866;2022-12-18T02:39:19;-8.20;99.90
26182;DHT22;13927;51.534;11.866;2022-12-18T02:41:46;-8.20;99.90
26182;DHT22;13927;51.534;11.866;2022-12-18T02:44:13;-8.20;99.90
26182;DHT22;13927;51.534;11.866;2022-12-18T02:46:43;-8.20;99.90
26182;DHT22;13927;51.534;11.866;2022-12-18T02:52:40;-8.10;99.90
26182;DHT22;13927;51.534;11.866;2022-12-18T02:58:46;-8.10;99.90
26182;DHT22;13927;51.534;11.866;2022-12-18T03:01:55;-8.10;99.90
26182;DHT22;13927;51.534;11.866;2022-12-18T03:07:03;-8.10;99.90
26182;DHT22;13927;51.534;11.866;2022-12-18T03:09:35;-8.10;99.90
26182;DHT22;13927;51.534;11.866;2022-12-18T03:12:26;-8.10;99.90
26182;DHT22;13927;51.534;11.866;2022-12-18T03:15:28;-8.10;99.90
26182;DHT22;13927;51.534;11.866;2022-12-18T03:18:04;-8.10;99.90
26182;DHT22;13927;51.534;11.866;2022-12-18T03:20:34;-8.20;99.90
26182;DHT22;13927;51.534;11.866;2022-12-18T03:23:09;-8.30;99.90
26182;DHT22;13927;51.534;11.866;2022-12-18T03:25:42;-8.30;99.90
26182;DHT22;13927;51.534;11.866;2022-12-18T03:28:14;-8.30;99.90
26182;DHT22;13927;51.534;11.866;2022-12-18T03:30:47;-8.30;99.90
26182;DHT22;13927;51.534;11.866;2022-12-18T03:35:52;-8.30;99.90
26182;DHT22;13927;51.534;11.866;2022-12-18T03:38:18;-8.30;99.90
26182;DHT22;13927;51.534;11.866;2022-12-18T03:44:21;-8.10;99.90
26182;DHT22;13927;51.534;11.866;2022-12-18T03:47:19;-8.10;99.90
26182;DHT22;13927;51.534;11.866;2022-12-18T03:50:15;-8.10;99.90
26182;DHT22;13927;51.534;11.866;2022-12-18T03:55:37;-8.00;99.90
26182;DHT22;13927;51.534;11.866;2022-12-18T03:58:05;-8.10;99.90
26182;DHT22;13927;51.534;11.866;2022-12-18T04:00:34;-8.20;99.90
26182;DHT22;13927;51.534;11.866;2022-12-18T04:03:01;-8.20;99.90
26182;DHT22;13927;51.534;11.866;2022-12-18T04:05:29;-8.30;99.90
26182;DHT22;13927;51.534;11.866;2022-12-18T04:07:56;-8.40;99.90
26182;DHT22;13927;51.534;11.866;2022-12-18T04:10:24;-8.50;99.90
26182;DHT22;13927;51.534;11.866;2022-12-18T04:12:50;-8.50;99.90
26182;DHT22;13927;51.534;11.866;2022-12-18T04:15:20;-8.40;99.90
26182;DHT22;13927;51.534;11.866;2022-12-18T04:17:48;-8.40;99.90
26182;DHT22;13927;51.534;11.866;2022-12-18T04:20:14;-8.50;99.90
26182;DHT22;13927;51.534;11.866;2022-12-18T04:22:40;-8.50;99.90
26182;DHT22;13927;51.534;11.866;2022-12-18T04:25:09;-8.60;99.90
26182;DHT22;13927;51.534;11.866;2022-12-18T04:27:35;-8.70;99.90
26182;DHT22;13927;51.534;11.866;2022-12-18T04:30:00;-8.80;99.90
26182;DHT22;13927;51.534;11.866;2022-12-18T04:32:26;-8.90;99.90
26182;DHT22;13927;51.534;11.866;2022-12-18T04:34:52;-8.90;99.90
26182;DHT22;13927;51.534;11.866;2022-12-18T04:37:18;-8.90;99.90
26182;DHT22;13927;51.534;11.866;2022-12-18T04:39:43;-9.00;99.90
26182;DHT22;13927;51.534;11.866;2022-12-18T04:42:09;-9.10;99.90
26182;DHT22;13927;51.534;11.866;2022-12-18T04:44:36;-9.10;99.90
26182;DHT22;13927;51.534;11.866;2022-12-18T04:47:02;-9.20;99.90
26182;DHT22;13927;51.534;11.866;2022-12-18T04:49:31;-9.20;99.90
26182;DHT22;13927;51.534;11.866;2022-12-18T04:51:56;-9.20;99.90
26182;DHT22;13927;51.534;11.866;2022-12-18T04:54:22;-9.30;99.90
26182;DHT22;13927;51.534;11.866;2022-12-18T04:56:48;-9.30;99.90
26182;DHT22;13927;51.534;11.866;2022-12-18T04:59:14;-9.30;99.90
26182;DHT22;13927;51.534;11.866;2022-12-18T05:01:40;-9.30;99.90
26182;DHT22;13927;51.534;11.866;2022-12-18T05:04:06;-9.30;99.90
26182;DHT22;13927;51.534;11.866;2022-12-18T05:06:32;-9.30;99.90
26182;DHT22;13927;51.534;11.866;2022-12-18T05:08:57;-9.30;99.90
26182;DHT22;13927;51.534;11.866;2022-12-18T05:11:23;-9.30;99.90
26182;DHT22;13927;51.534;11.866;2022-12-18T05:13:49;-9.30;99.90
26182;DHT22;13927;51.534;11.866;2022-12-18T05:16:15;-9.30;99.90
26182;DHT22;13927;51.534;11.866;2022-12-18T05:18:41;-9.30;99.90
26182;DHT22;13927;51.534;11.866;2022-12-18T05:21:07;-9.30;99.90
26182;DHT22;13927;51.534;11.866;2022-12-18T05:23:33;-9.20;99.90
26182;DHT22;13927;51.534;11.866;2022-12-18T05:26:01;-9.20;99.90
26182;DHT22;13927;51.534;11.866;2022-12-18T05:28:29;-9.20;99.90
26182;DHT22;13927;51.534;11.866;2022-12-18T05:31:00;-9.20;99.90
26182;DHT22;13927;51.534;11.866;2022-12-18T05:33:31;-9.20;99.90
26182;DHT22;13927;51.534;11.866;2022-12-18T05:36:03;-9.30;99.90
26182;DHT22;13927;51.534;11.866;2022-12-18T05:38:33;-9.30;99.90
26182;DHT22;13927;51.534;11.866;2022-12-18T05:41:01;-9.40;99.90
26182;DHT22;13927;51.534;11.866;2022-12-18T05:43:28;-9.50;99.90
26182;DHT22;13927;51.534;11.866;2022-12-18T05:45:54;-9.50;99.90
26182;DHT22;13927;51.534;11.866;2022-12-18T05:48:24;-9.50;99.90
26182;DHT22;13927;51.534;11.866;2022-12-18T05:50:50;-9.50;99.90
26182;DHT22;13927;51.534;11.866;2022-12-18T05:53:19;-9.50;99.90
26182;DHT22;13927;51.534;11.866;2022-12-18T05:55:46;-9.60;99.90
26182;DHT22;13927;51.534;11.866;2022-12-18T05:58:13;-9.60;99.90
26182;DHT22;13927;51.534;11.866;2022-12-18T06:00:42;-9.60;99.90
26182;DHT22;13927;51.534;11.866;2022-12-18T06:03:10;-9.60;99.90
26182;DHT22;13927;51.534;11.866;2022-12-18T06:05:43;-9.60;99.90
26182;DHT22;13927;51.534;11.866;2022-12-18T06:08:09;-9.60;99.90
26182;DHT22;13927;51.534;11.866;2022-12-18T06:10:37;-9.60;99.90
26182;DHT22;13927;51.534;11.866;2022-12-18T06:13:04;-9.60;99.90
26182;DHT22;13927;51.534;11.866;2022-12-18T06:15:31;-9.60;99.90
26182;DHT22;13927;51.534;11.866;2022-12-18T06:18:00;-9.70;99.90
26182;DHT22;13927;51.534;11.866;2022-12-18T06:20:26;-9.60;99.90
26182;DHT22;13927;51.534;11.866;2022-12-18T06:22:51;-9.70;99.90
26182;DHT22;13927;51.534;11.866;2022-12-18T06:25:17;-9.70;99.90
26182;DHT22;13927;51.534;11.866;2022-12-18T06:27:43;-9.70;99.90
26182;DHT22;13927;51.534;11.866;2022-12-18T06:30:11;-9.80;99.90
26182;DHT22;13927;51.534;11.866;2022-12-18T06:32:38;-9.90;99.90
26182;DHT22;13927;51.534;11.866;2022-12-18T06:35:04;-9.90;99.90
26182;DHT22;13927;51.534;11.866;2022-12-18T06:37:31;-10.00;99.90
26182;DHT22;13927;51.534;11.866;2022-12-18T06:39:56;-10.00;99.90
26182;DHT22;13927;51.534;11.866;2022-12-18T06:42:23;-10.00;99.90
26182;DHT22;13927;51.534;11.866;2022-12-18T06:44:49;-10.00;99.90
26182;DHT22;13927;51.534;11.866;2022-12-18T06:47:15;-10.00;99.90
26182;DHT22;13927;51.534;11.866;2022-12-18T06:49:41;-10.10;99.90
26182;DHT22;13927;51.534;11.866;2022-12-18T06:52:09;-10.00;99.90
26182;DHT22;13927;51.534;11.866;2022-12-18T06:54:37;-10.10;99.90
26182;DHT22;13927;51.534;11.866;2022-12-18T06:57:03;-10.10;99.90
26182;DHT22;13927;51.534;11.866;2022-12-18T06:59:31;-10.10;99.90
26182;DHT22;13927;51.534;11.866;2022-12-18T07:01:58;-10.10;99.90
26182;DHT22;13927;51.534;11.866;2022-12-18T07:04:28;-10.10;99.90
26182;DHT22;13927;51.534;11.866;2022-12-18T07:06:55;-10.10;99.90
26182;DHT22;13927;51.534;11.866;2022-12-18T07:09:22;-10.10;99.90
26182;DHT22;13927;51.534;11.866;2022-12-18T07:11:48;-10.10;99.90
26182;DHT22;13927;51.534;11.866;2022-12-18T07:14:14;-10.10;99.90
26182;DHT22;13927;51.534;11.866;2022-12-18T07:16:40;-10.10;99.90
26182;DHT22;13927;51.534;11.866;2022-12-18T07:19:06;-10.20;99.90
26182;DHT22;13927;51.534;11.866;2022-12-18T07:21:31;-10.20;99.90
26182;DHT22;13927;51.534;11.866;2022-12-18T07:23:57;-10.20;99.90
26182;DHT22;13927;51.534;11.866;2022-12-18T07:26:23;-10.30;99.90
26182;DHT22;13927;51.534;11.866;2022-12-18T07:28:49;-10.30;99.90
26182;DHT22;13927;51.534;11.866;2022-12-18T07:31:19;-10.30;99.90
26182;DHT22;13927;51.534;11.866;2022-12-18T07:33:46;-10.30;99.90
26182;DHT22;13927;51.534;11.866;2022-12-18T07:36:12;-10.40;99.90
26182;DHT22;13927;51.534;11.866;2022-12-18T07:38:39;-10.40;99.90
26182;DHT22;13927;51.534;11.866;2022-12-18T07:41:07;-10.40;99.90
26182;DHT22;13927;51.534;11.866;2022-12-18T07:43:35;-10.40;99.90
26182;DHT22;13927;51.534;11.866;2022-12-18T07:46:02;-10.30;99.90
26182;DHT22;13927;51.534;11.866;2022-12-18T07:48:28;-10.30;99.90
26182;DHT22;13927;51.534;11.866;2022-12-18T07:51:05;-10.20;99.90
26182;DHT22;13927;51.534;11.866;2022-12-18T07:53:32;-10.10;99.90
26182;DHT22;13927;51.534;11.866;2022-12-18T07:55:59;-10.00;99.90
26182;DHT22;13927;51.534;11.866;2022-12-18T07:58:29;-10.00;99.90
26182;DHT22;13927;51.534;11.866;2022-12-18T08:01:06;-9.90;99.90
26182;DHT22;13927;51.534;11.866;2022-12-18T08:03:34;-9.70;99.90
26182;DHT22;13927;51.534;11.866;2022-12-18T08:06:12;-9.60;99.90
26182;DHT22;13927;51.534;11.866;2022-12-18T08:08:38;-9.60;99.90
26182;DHT22;13927;51.534;11.866;2022-12-18T08:11:05;-9.50;99.90
26182;DHT22;13927;51.534;11.866;2022-12-18T08:13:31;-9.50;99.90
26182;DHT22;13927;51.534;11.866;2022-12-18T08:16:07;-9.50;99.90
26182;DHT22;13927;51.534;11.866;2022-12-18T08:18:35;-9.40;99.90
26182;DHT22;13927;51.534;11.866;2022-12-18T08:21:17;-9.30;99.90
26182;DHT22;13927;51.534;11.866;2022-12-18T08:23:46;-9.20;99.90
26182;DHT22;13927;51.534;11.866;2022-12-18T08:26:12;-9.00;99.90
26182;DHT22;13927;51.534;11.866;2022-12-18T08:28:38;-8.80;99.90
26182;DHT22;13927;51.534;11.866;2022-12-18T08:31:05;-8.60;99.90
26182;DHT22;13927;51.534;11.866;2022-12-18T08:33:31;-8.50;99.90
26182;DHT22;13927;51.534;11.866;2022-12-18T08:36:01;-8.40;99.90
26182;DHT22;13927;51.534;11.866;2022-12-18T08:38:27;-8.30;99.90
26182;DHT22;13927;51.534;11.866;2022-12-18T08:41:19;-8.20;99.90
26182;DHT22;13927;51.534;11.866;2022-12-18T08:43:45;-8.00;99.90
26182;DHT22;13927;51.534;11.866;2022-12-18T08:46:36;-7.70;99.90
26182;DHT22;13927;51.534;11.866;2022-12-18T08:49:05;-7.40;99.90
26182;DHT22;13927;51.534;11.866;2022-12-18T08:51:32;-7.20;99.90
26182;DHT22;13927;51.534;11.866;2022-12-18T08:53:58;-6.90;99.90
26182;DHT22;13927;51.534;11.866;2022-12-18T08:56:24;-6.80;99.90
26182;DHT22;13927;51.534;11.866;2022-12-18T08:58:54;-6.50;99.90
26182;DHT22;13927;51.534;11.866;2022-12-18T09:01:21;-6.30;99.90
26182;DHT22;13927;51.534;11.866;2022-12-18T09:03:48;-6.10;99.90
26182;DHT22;13927;51.534;11.866;2022-12-18T09:06:16;-5.90;99.90
26182;DHT22;13927;51.534;11.866;2022-12-18T09:08:45;-5.60;99.90
26182;DHT22;13927;51.534;11.866;2022-12-18T09:11:25;-5.40;99.90
26182;DHT22;13927;51.534;11.866;2022-12-18T09:13:52;-5.10;99.90
26182;DHT22;13927;51.534;11.866;2022-12-18T09:16:20;-4.90;99.90
26182;DHT22;13927;51.534;11.866;2022-12-18T09:18:46;-4.60;99.90
26182;DHT22;13927;51.534;11.866;2022-12-18T09:21:18;-4.40;99.90
26182;DHT22;13927;51.534;11.866;2022-12-18T09:23:52;-4.10;99.90
26182;DHT22;13927;51.534;11.866;2022-12-18T09:26:19;-3.90;99.90
26182;DHT22;13927;51.534;11.866;2022-12-18T09:28:45;-3.70;99.90
26182;DHT22;13927;51.534;11.866;2022-12-18T09:31:12;-3.50;99.90
26182;DHT22;13927;51.534;11.866;2022-12-18T09:33:38;-3.40;99.90
26182;DHT22;13927;51.534;11.866;2022-12-18T09:36:06;-3.20;99.90
26182;DHT22;13927;51.534;11.866;2022-12-18T09:38:34;-3.10;99.90
26182;DHT22;13927;51.534;11.866;2022-12-18T09:43:53;-3.00;99.90
26182;DHT22;13927;51.534;11.866;2022-12-18T09:46:28;-2.70;99.90
26182;DHT22;13927;51.534;11.866;2022-12-18T09:48:59;-2.70;99.90
26182;DHT22;13927;51.534;11.866;2022-12-18T09:51:39;-2.80;99.90
26182;DHT22;13927;51.534;11.866;2022-12-18T09:54:18;-2.80;99.90
26182;DHT22;13927;51.534;11.866;2022-12-18T09:56:47;-2.80;99.90
26182;DHT22;13927;51.534;11.866;2022-12-18T10:02:40;-2.60;99.90
26182;DHT22;13927;51.534;11.866;2022-12-18T10:05:16;-2.50;99.90
26182;DHT22;13927;51.534;11.866;2022-12-18T10:08:05;-2.40;99.90
26182;DHT22;13927;51.534;11.866;2022-12-18T10:10:44;-2.20;99.90
26182;DHT22;13927;51.534;11.866;2022-12-18T10:13:18;-2.20;99.90
26182;DHT22;13927;51.534;11.866;2022-12-18T10:16:09;-2.10;99.90
26182;DHT22;13927;51.534;11.866;2022-12-18T10:27:25;-1.80;99.90
26182;DHT22;13927;51.534;11.866;2022-12-18T10:29:53;-1.70;99.90
26182;DHT22;13927;51.534;11.866;2022-12-18T10:32:31;-1.70;99.90
26182;DHT22;13927;51.534;11.866;2022-12-18T10:34:58;-1.60;99.90
26182;DHT22;13927;51.534;11.866;2022-12-18T10:37:26;-1.40;99.90
26182;DHT22;13927;51.534;11.866;2022-12-18T10:40:14;-1.40;99.90
26182;DHT22;13927;51.534;11.866;2022-12-18T10:42:41;-1.30;99.90
26182;DHT22;13927;51.534;11.866;2022-12-18T10:45:17;-1.20;99.90
26182;DHT22;13927;51.534;11.866;2022-12-18T10:47:48;-1.00;99.90
26182;DHT22;13927;51.534;11.866;2022-12-18T10:50:27;-0.90;99.90
26182;DHT22;13927;51.534;11.866;2022-12-18T10:52:57;-0.80;99.90
26182;DHT22;13927;51.534;11.866;2022-12-18T10:55:39;-0.60;99.90
26182;DHT22;13927;51.534;11.866;2022-12-18T10:58:30;-0.50;99.90
26182;DHT22;13927;51.534;11.866;2022-12-18T11:01:10;-0.20;99.90
26182;DHT22;13927;51.534;11.866;2022-12-18T11:03:59;0.00;99.90
26182;DHT22;13927;51.534;11.866;2022-12-18T11:06:26;0.20;99.90
26182;DHT22;13927;51.534;11.866;2022-12-18T11:09:02;0.40;99.90
26182;DHT22;13927;51.534;11.866;2022-12-18T11:11:29;0.30;99.90
26182;DHT22;13927;51.534;11.866;2022-12-18T11:14:05;0.20;99.90
26182;DHT22;13927;51.534;11.866;2022-12-18T11:16:48;-0.30;99.90
26182;DHT22;13927;51.534;11.866;2022-12-18T11:23:20;-0.80;99.90
26182;DHT22;13927;51.534;11.866;2022-12-18T11:26:03;-0.70;99.90
26182;DHT22;13927;51.534;11.866;2022-12-18T11:28:49;-0.50;99.90
26182;DHT22;13927;51.534;11.866;2022-12-18T11:31:21;-0.40;99.90
26182;DHT22;13927;51.534;11.866;2022-12-18T11:36:42;-0.30;99.90
26182;DHT22;13927;51.534;11.866;2022-12-18T11:39:36;0.10;99.90
26182;DHT22;13927;51.534;11.866;2022-12-18T11:45:00;0.30;99.90
26182;DHT22;13927;51.534;11.866;2022-12-18T11:47:38;0.30;99.90
26182;DHT22;13927;51.534;11.866;2022-12-18T11:50:30;0.30;99.90
26182;DHT22;13927;51.534;11.866;2022-12-18T11:52:59;0.40;99.90
26182;DHT22;13927;51.534;11.866;2022-12-18T11:58:48;0.30;99.90
26182;DHT22;13927;51.534;11.866;2022-12-18T12:01:48;0.10;99.90
26182;DHT22;13927;51.534;11.866;2022-12-18T12:08:34;0.10;99.90
26182;DHT22;13927;51.534;11.866;2022-12-18T12:11:49;0.20;99.90
26182;DHT22;13927;51.534;11.866;2022-12-18T12:29:40;0.70;99.90
26182;DHT22;13927;51.534;11.866;2022-12-18T12:38:23;0.50;99.90
26182;DHT22;13927;51.534;11.866;2022-12-18T12:40:58;0.40;99.90
26182;DHT22;13927;51.534;11.866;2022-12-18T12:43:35;0.40;99.90
26182;DHT22;13927;51.534;11.866;2022-12-18T12:46:15;0.30;99.90
26182;DHT22;13927;51.534;11.866;2022-12-18T12:48:50;0.30;99.90
26182;DHT22;13927;51.534;11.866;2022-12-18T12:51:19;0.50;99.90
26182;DHT22;13927;51.534;11.866;2022-12-18T12:53:47;0.90;99.90
26182;DHT22;13927;51.534;11.866;2022-12-18T12:56:16;1.30;99.90
26182;DHT22;13927;51.534;11.866;2022-12-18T13:04:51;2.30;99.90
26182;DHT22;13927;51.534;11.866;2022-12-18T13:07:39;2.40;99.90
26182;DHT22;13927;51.534;11.866;2022-12-18T13:16:03;2.20;99.90
26182;DHT22;13927;51.534;11.866;2022-12-18T13:18:31;2.10;99.90
26182;DHT22;13927;51.534;11.866;2022-12-18T13:25:57;1.70;99.90
26182;DHT22;13927;51.534;11.866;2022-12-18T13:34:29;0.70;99.90
26182;DHT22;13927;51.534;11.866;2022-12-18T13:48:33;-0.90;99.90
26182;DHT22;13927;51.534;11.866;2022-12-18T13:53:46;-1.30;99.90
26182;DHT22;13927;51.534;11.866;2022-12-18T13:56:42;-1.50;99.90
26182;DHT22;13927;51.534;11.866;2022-12-18T13:59:33;-1.60;99.90
26182;DHT22;13927;51.534;11.866;2022-12-18T14:02:07;-1.70;99.90
26182;DHT22;13927;51.534;11.866;2022-12-18T14:04:41;-1.80;99.90
26182;DHT22;13927;51.534;11.866;2022-12-18T14:10:00;-2.00;99.90
26182;DHT22;13927;51.534;11.866;2022-12-18T14:12:31;-2.20;99.90
26182;DHT22;13927;51.534;11.866;2022-12-18T14:17:57;-2.50;99.90
26182;DHT22;13927;51.534;11.866;2022-12-18T14:20:29;-2.70;99.90
26182;DHT22;13927;51.534;11.866;2022-12-18T14:23:01;-2.90;99.90
26182;DHT22;13927;51.534;11.866;2022-12-18T14:25:29;-2.90;99.90
26182;DHT22;13927;51.534;11.866;2022-12-18T14:30:41;-3.30;99.90
26182;DHT22;13927;51.534;11.866;2022-12-18T14:35:37;-3.80;99.90
26182;DHT22;13927;51.534;11.866;2022-12-18T14:38:21;-3.80;99.90
26182;DHT22;13927;51.534;11.866;2022-12-18T14:41:00;-3.80;99.90
26182;DHT22;13927;51.534;11.866;2022-12-18T14:43:31;-3.80;99.90
26182;DHT22;13927;51.534;11.866;2022-12-18T14:45:59;-3.80;99.90
26182;DHT22;13927;51.534;11.866;2022-12-18T14:48:41;-3.90;99.90
26182;DHT22;13927;51.534;11.866;2022-12-18T14:53:41;-3.90;99.90
26182;DHT22;13927;51.534;11.866;2022-12-18T14:56:33;-3.90;99.90
26182;DHT22;13927;51.534;11.866;2022-12-18T14:59:24;-3.90;99.90
26182;DHT22;13927;51.534;11.866;2022-12-18T15:04:46;-4.00;99.90
26182;DHT22;13927;51.534;11.866;2022-12-18T15:07:21;-4.00;99.90
26182;DHT22;13927;51.534;11.866;2022-12-18T15:10:11;-4.10;99.90
26182;DHT22;13927;51.534;11.866;2022-12-18T15:25:58;-4.30;99.90
26182;DHT22;13927;51.534;11.866;2022-12-18T15:28:52;-4.30;99.90
26182;DHT22;13927;51.534;11.866;2022-12-18T15:31:30;-4.40;99.90
26182;DHT22;13927;51.534;11.866;2022-12-18T15:36:24;-4.50;99.90
26182;DHT22;13927;51.534;11.866;2022-12-18T15:38:52;-4.50;99.90
26182;DHT22;13927;51.534;11.866;2022-12-18T15:41:19;-4.50;99.90
26182;DHT22;13927;51.534;11.866;2022-12-18T15:43:49;-4.60;99.90
26182;DHT22;13927;51.534;11.866;2022-12-18T15:46:16;-4.60;99.90
26182;DHT22;13927;51.534;11.866;2022-12-18T15:48:45;-4.60;99.90
26182;DHT22;13927;51.534;11.866;2022-12-18T15:51:31;-4.60;99.90
26182;DHT22;13927;51.534;11.866;2022-12-18T15:54:01;-4.70;99.90
26182;DHT22;13927;51.534;11.866;2022-12-18T15:56:29;-4.60;99.90
26182;DHT22;13927;51.534;11.866;2022-12-18T15:59:16;-4.60;99.90
26182;DHT22;13927;51.534;11.866;2022-12-18T16:01:46;-4.60;99.90
26182;DHT22;13927;51.534;11.866;2022-12-18T16:04:15;-4.60;99.90
26182;DHT22;13927;51.534;11.866;2022-12-18T16:06:45;-4.60;99.90
26182;DHT22;13927;51.534;11.866;2022-12-18T16:09:11;-4.70;99.90
26182;DHT22;13927;51.534;11.866;2022-12-18T16:11:38;-4.70;99.90
26182;DHT22;13927;51.534;11.866;2022-12-18T16:16:45;-4.80;99.90
26182;DHT22;13927;51.534;11.866;2022-12-18T16:19:12;-4.80;99.90
26182;DHT22;13927;51.534;11.866;2022-12-18T16:24:20;-4.80;99.90
26182;DHT22;13927;51.534;11.866;2022-12-18T16:26:48;-4.80;99.90
26182;DHT22;13927;51.534;11.866;2022-12-18T16:29:17;-4.80;99.90
26182;DHT22;13927;51.534;11.866;2022-12-18T16:31:44;-4.80;99.90
26182;DHT22;13927;51.534;11.866;2022-12-18T16:34:22;-4.80;99.90
26182;DHT22;13927;51.534;11.866;2022-12-18T16:37:00;-4.80;99.90
26182;DHT22;13927;51.534;11.866;2022-12-18T16:39:30;-4.80;99.90
26182;DHT22;13927;51.534;11.866;2022-12-18T16:42:06;-4.90;99.90
26182;DHT22;13927;51.534;11.866;2022-12-18T16:44:35;-4.90;99.90
26182;DHT22;13927;51.534;11.866;2022-12-18T16:47:00;-4.90;99.90
26182;DHT22;13927;51.534;11.866;2022-12-18T16:49:28;-4.90;99.90
26182;DHT22;13927;51.534;11.866;2022-12-18T16:51:55;-4.90;99.90
26182;DHT22;13927;51.534;11.866;2022-12-18T16:54:20;-5.00;99.90
26182;DHT22;13927;51.534;11.866;2022-12-18T16:56:46;-5.00;99.90
26182;DHT22;13927;51.534;11.866;2022-12-18T16:59:18;-5.00;99.90
26182;DHT22;13927;51.534;11.866;2022-12-18T17:01:44;-5.00;99.90
26182;DHT22;13927;51.534;11.866;2022-12-18T17:04:10;-5.00;99.90
26182;DHT22;13927;51.534;11.866;2022-12-18T17:06:41;-5.00;99.90
26182;DHT22;13927;51.534;11.866;2022-12-18T17:09:12;-5.00;99.90
26182;DHT22;13927;51.534;11.866;2022-12-18T17:11:40;-5.00;99.90
26182;DHT22;13927;51.534;11.866;2022-12-18T17:14:08;-5.00;99.90
26182;DHT22;13927;51.534;11.866;2022-12-18T17:16:39;-5.00;99.90
26182;DHT22;13927;51.534;11.866;2022-12-18T17:19:06;-4.90;99.90
26182;DHT22;13927;51.534;11.866;2022-12-18T17:21:32;-4.80;99.90
26182;DHT22;13927;51.534;11.866;2022-12-18T17:24:02;-4.80;99.90
26182;DHT22;13927;51.534;11.866;2022-12-18T17:26:29;-4.70;99.90
26182;DHT22;13927;51.534;11.866;2022-12-18T17:28:56;-4.70;99.90
26182;DHT22;13927;51.534;11.866;2022-12-18T17:31:38;-4.70;99.90
26182;DHT22;13927;51.534;11.866;2022-12-18T17:34:05;-4.70;99.90
26182;DHT22;13927;51.534;11.866;2022-12-18T17:36:30;-4.70;99.90
26182;DHT22;13927;51.534;11.866;2022-12-18T17:38:59;-4.60;99.90
26182;DHT22;13927;51.534;11.866;2022-12-18T17:41:26;-4.60;99.90
26182;DHT22;13927;51.534;11.866;2022-12-18T17:43:54;-4.60;99.90
26182;DHT22;13927;51.534;11.866;2022-12-18T17:46:22;-4.60;99.90
26182;DHT22;13927;51.534;11.866;2022-12-18T17:48:50;-4.60;99.90
26182;DHT22;13927;51.534;11.866;2022-12-18T17:51:18;-4.60;99.90
26182;DHT22;13927;51.534;11.866;2022-12-18T17:53:44;-4.60;99.90
26182;DHT22;13927;51.534;11.866;2022-12-18T17:56:17;-4.50;99.90
26182;DHT22;13927;51.534;11.866;2022-12-18T17:58:44;-4.60;99.90
26182;DHT22;13927;51.534;11.866;2022-12-18T18:01:17;-4.60;99.90
26182;DHT22;13927;51.534;11.866;2022-12-18T18:03:45;-4.50;99.90
26182;DHT22;13927;51.534;11.866;2022-12-18T18:06:17;-4.50;99.90
26182;DHT22;13927;51.534;11.866;2022-12-18T18:08:42;-4.50;99.90
26182;DHT22;13927;51.534;11.866;2022-12-18T18:11:16;-4.50;99.90
26182;DHT22;13927;51.534;11.866;2022-12-18T18:14:01;-4.50;99.90
26182;DHT22;13927;51.534;11.866;2022-12-18T18:16:34;-4.40;99.90
26182;DHT22;13927;51.534;11.866;2022-12-18T18:19:10;-4.40;99.90